Flight Track Log - Related Links

Times and Time Zones

All times are in EDT time to prevent confusion due to time zone crossing. See the SWA1903 flight status page for this flight to view local times or setup timezone preferences in your user account.


Time Position Orientation Groundspeed Altitude Reporting Facility
EDT Latitude Longitude Course Direction KTS MPH feet Rate Location/Type
Fri 03:33:58 PM 33.4333 -112.0333 270° West 181 208 1,900  Level Phoenix TRACON
Fri 03:34:52 PM 33.4333 -112.1000 270° West 208 239 3,600 2,296 Climbing Phoenix TRACON
Fri 03:35:53 PM 33.4500 -112.1667 287° West 242 278 6,300 2,400 Climbing Phoenix TRACON
Fri 03:37:07 PM 33.5339 -112.1708 358° North 303 349 9,000 2,868 Climbing Albuquerque Center
Fri 03:38:09 PM 33.6239 -112.1517 10° North 328 377 12,800 3,339 Climbing Albuquerque Center
Fri 03:39:11 PM 33.7167 -112.1611 355° North 333 383 15,900 2,565 Climbing Albuquerque Center
Fri 03:40:13 PM 33.8014 -112.1000 31° Northeast 384 442 18,100 2,806 Climbing Albuquerque Center
Fri 03:41:15 PM 33.8858 -111.9719 52° Northeast 407 468 21,700 2,855 Climbing Albuquerque Center
Fri 03:42:17 PM 33.9783 -111.8692 43° Northeast 428 493 24,000 2,293 Climbing Albuquerque Center
Fri 03:43:18 PM 34.0978 -111.8811 355° North 434 499 26,400 2,195 Climbing Albuquerque Center
Fri 03:44:20 PM 34.2197 -111.8983 353° North 440 506 28,500 1,887 Climbing Albuquerque Center
Fri 03:45:22 PM 34.3439 -111.9161 353° North 451 519 30,300 1,839 Climbing Albuquerque Center
Fri 03:46:24 PM 34.4700 -111.9342 353° North 455 524 32,300 1,790 Climbing Albuquerque Center
Fri 03:47:26 PM 34.5975 -111.9519 353° North 458 527 34,000 829 Climbing Albuquerque Center
Fri 03:48:27 PM 34.7228 -111.9697 353° North 456 525 34,000  Level Albuquerque Center
Fri 03:49:29 PM 34.8719 -111.9911 353° North 455 524 34,000  Level Albuquerque Center
Fri 03:50:31 PM 34.9958 -112.0086 353° North 452 520 34,000  Level Albuquerque Center
Fri 03:51:33 PM 35.1217 -112.0256 354° North 457 526 34,000 435 Level Albuquerque Center
Fri 03:52:35 PM 35.2461 -112.0436 353° North 455 524 34,900 968 Climbing Albuquerque Center
Fri 03:53:37 PM 35.3733 -112.0622 353° North 462 532 36,000 532 Climbing Albuquerque Center
Fri 03:54:39 PM 35.5250 -112.0836 353° North 462 532 36,000  Level Albuquerque Center
Fri 03:55:40 PM 35.6486 -112.1003 354° North 456 525 36,000  Level Albuquerque Center
Fri 03:56:42 PM 35.7731 -112.1186 353° North 454 522 36,000  Level Albuquerque Center
Fri 03:57:44 PM 35.8969 -112.1361 353° North 452 520 36,000  Level Albuquerque Center
Fri 03:58:46 PM 36.0208 -112.1522 354° North 452 520 36,000  Level Albuquerque Center
Fri 03:59:48 PM 36.1703 -112.1658 356° North 453 521 36,000  Level Albuquerque Center
Fri 04:00:22 PM 36.2239 -112.1697 357° North 448 516 36,000  Level Salt Lake Center
Fri 04:01:02 PM 36.3228 -112.1778 356° North 445 512 36,000  Level Los Angeles Center
Fri 04:02:05 PM 36.4483 -112.1892 356° North 448 516 36,000  Level Los Angeles Center
Fri 04:03:07 PM 36.5728 -112.2014 355° North 449 517 36,000 -339 Level Los Angeles Center
Fri 04:04:09 PM 36.6986 -112.2114 356° North 452 520 35,300 -774 Descending Los Angeles Center
Fri 04:05:11 PM 36.8247 -112.2233 356° North 453 521 34,400 -629 Descending Los Angeles Center
Fri 04:06:13 PM 36.9797 -112.2369 356° North 464 534 34,000 -194 Descending Los Angeles Center
Fri 04:07:15 PM 37.1078 -112.2489 356° North 465 535 34,000  Level Los Angeles Center
Fri 04:08:17 PM 37.2358 -112.2611 356° North 464 534 34,000  Level Los Angeles Center
Fri 04:09:19 PM 37.3633 -112.2733 356° North 463 533 34,000  Level Los Angeles Center
Fri 04:09:39 PM 37.4147 -112.2786 355° North 465 535 34,000  Level Salt Lake Center
Fri 04:10:41 PM 37.5431 -112.2900 356° North 466 536 34,000  Level Salt Lake Center
Fri 04:11:43 PM 37.6736 -112.3025 356° North 471 542 34,000  Level Salt Lake Center
Fri 04:12:45 PM 37.8044 -112.2881 North 476 548 34,000  Level Salt Lake Center
Fri 04:13:47 PM 37.9603 -112.2683 North 473 544 34,000  Level Salt Lake Center
Fri 04:14:49 PM 38.0889 -112.2506 North 469 540 34,000  Level Salt Lake Center
Fri 04:15:51 PM 38.2172 -112.2336 North 467 537 34,000  Level Salt Lake Center
Fri 04:16:52 PM 38.3456 -112.2158 North 465 535 34,000 -488 Level Salt Lake Center
Fri 04:17:54 PM 38.4747 -112.1972 North 467 537 33,000 -968 Descending Salt Lake Center
Fri 04:18:56 PM 38.6017 -112.1792 North 463 533 32,000 -484 Descending Salt Lake Center
Fri 04:19:58 PM 38.7519 -112.1572 North 455 524 32,000  Level Salt Lake Center
Fri 04:21:00 PM 38.8792 -112.1408 North 458 527 32,000 -968 Level Salt Lake Center
Fri 04:22:02 PM 39.0036 -112.1236 North 453 521 30,000 -1,790 Descending Salt Lake Center
Fri 04:23:04 PM 39.1267 -112.1056 North 447 514 28,300 -1,854 Descending Salt Lake Center
Fri 04:24:05 PM 39.2550 -112.0886 North 425 489 26,200 -1,951 Descending Salt Lake Center
Fri 04:25:07 PM 39.3683 -112.0711 North 413 475 24,300 -1,742 Descending Salt Lake Center
Fri 04:26:09 PM 39.4786 -112.0558 North 404 465 22,600 -1,742 Descending Salt Lake Center
Fri 04:27:11 PM 39.5861 -112.0414 North 394 453 20,700 -1,742 Descending Salt Lake Center
Fri 04:28:13 PM 39.6903 -112.0256 North 384 442 19,000 -1,742 Descending Salt Lake Center
Fri 04:29:15 PM 39.8106 -112.0094 North 368 423 17,100 -1,740 Descending Salt Lake Center
Fri 04:29:53 PM 39.8653 -112.0100 360° North 362 417 16,100 -1,742 Descending Salt Lake Center
Fri 04:30:17 PM 39.9072 -111.9922 18° North 354 407 15,300 -1,375 Descending Salt Lake Center
Fri 04:30:41 PM 39.9467 -111.9967 355° North 347 399 15,000 -295 Descending Salt Lake Center
Fri 04:31:18 PM 40.0006 -111.9808 13° North 336 387 15,000 -393 Level Salt Lake Center
Fri 04:31:42 PM 40.0411 -111.9847 356° North 334 384 14,600 -968 Descending Salt Lake Center
Fri 04:32:20 PM 40.0933 -111.9672 14° North 335 386 14,000 -1,180 Descending Salt Lake Center
Fri 04:32:43 PM 40.1350 -111.9697 357° North 333 383 13,400 -968 Descending Salt Lake Center
Fri 04:33:22 PM 40.1831 -111.9558 12° North 327 376 13,000 -787 Descending Salt Lake Center
Fri 04:33:44 PM 40.2203 -111.9550 North 326 375 12,600 -1,065 Descending Salt Lake Center
Fri 04:34:24 PM 40.2719 -111.9417 11° North 322 371 11,900 -1,279 Descending Salt Lake Center
Fri 04:34:45 PM 40.3153 -111.9456 356° North 321 369 11,300 -1,279 Descending Salt Lake Center
Fri 04:35:25 PM 40.3603 -111.9461 359° North 317 365 10,600 -1,176 Descending Salt Lake Center
Fri 04:36:27 PM 40.4628 -111.9586 355° North 309 356 9,300 -1,185 Descending Salt Lake Center
Fri 04:36:46 PM 40.4875 -111.9661 347° North 305 351 9,000 -871 Descending Salt Lake Center
Fri 04:37:29 PM 40.5408 -111.9678 359° North 279 321 8,400 -885 Descending Salt Lake Center
Fri 04:37:47 PM 40.5622 -111.9747 346° North 273 314 8,100 -1,065 Descending Salt Lake Center
Fri 04:38:31 PM 40.6139 -111.9764 359° North 264 304 7,300 -1,132 Descending Salt Lake Center
Fri 04:39:33 PM 40.6792 -111.9839 355° North 238 274 6,100 -1,045 Descending Salt Lake Center
Fri 04:40:43 PM 40.7406 -111.9933 353° North 181 208 5,000 -829 Descending Salt Lake Center
Fri 04:41:36 PM 40.7733 -111.9944 359° North 151 174 4,400 -679 Descending Salt Lake Center
Fri 04:43:00 PM 40.7833 -111.9667 North  Level FlightAware Approximate

Login

Don't have an account? Register now (free) for customized features, flight alerts, and more!